PWSweather.com
Personal Weather Stations
Station Observations
BALTRELAY
Relay, Baltimore, MD 21227

RelayBaltimore, MD 21227

Lat: 39.24588, Lon: -76.719772

Elevation: 221

Station Type: Davis Vantage Pro2 (6153)

http://www.relayweather.com

Latest ConditionsUpdated 12:15:03 PM GMT Thursday, Jul 24, 2014
Currently Today's Max Today's Min Today's Average
Temperature 70.6°F21.4°C 78.6°F25.9°C 70.4°F21.3°C 72.7°F22.6°C
Dew Point 66.5°F19.2°C 71.8°F22.1°C 66.5°F19.2°C 69.8°F21.0°C
Winds 3.4 mph NW5.5 kmh NW 7.6 mph W12.2 kmh W - 1.7 mph 2.7 kmh
Wind Gusts 6.1 mph9.8 kmh 14.1 mph22.7 kmh - -
Humidity 87% 94% 76% 91%
Pressure 29.88 in1011.9 mb 29.88 in1011.9 mb 29.82 in1009.8 mb -
Precipitation - 0.01 in0.3 mm - -
Hour Temp Dew Point Humidity Winds Wind Gusts Pressure Precip Precip Rate Daily Precip Total
12:15 PM 70.6°F21.4°C 66.5°F19.2°C 87% 3.4 mph NW5.5 kmh NW 6.1 mph9.8 kmh 29.88 in1011.9 mb 0.00 in0.0 mm 0.00 in/hr0.0 mm/hr 0.01 in0.3 mm
12:10 PM 70.6°F21.4°C 66.5°F19.2°C 87% 2.8 mph N4.5 kmh N 5.0 mph8.0 kmh 29.88 in1011.9 mb 0.00 in0.0 mm 0.00 in/hr0.0 mm/hr 0.01 in0.3 mm
12:00 PM 70.6°F21.4°C 66.9°F19.4°C 88% 3.4 mph N5.5 kmh N 5.0 mph8.0 kmh 29.88 in1011.9 mb 0.00 in0.0 mm 0.00 in/hr0.0 mm/hr 0.01 in0.3 mm
11:50 AM 70.5°F21.4°C 67.1°F19.5°C 89% 4.3 mph NNW6.9 kmh NNW 5.0 mph8.0 kmh 29.87 in1011.5 mb 0.00 in0.0 mm 0.00 in/hr0.0 mm/hr 0.01 in0.3 mm
11:45 AM 70.5°F21.4°C 67.1°F19.5°C 89% 4.8 mph NNW7.7 kmh NNW 8.1 mph13.0 kmh 29.87 in1011.5 mb 0.00 in0.0 mm 0.00 in/hr0.0 mm/hr 0.01 in0.3 mm
11:40 AM 70.6°F21.4°C 67.5°F19.7°C 90% 2.2 mph N3.5 kmh N 5.0 mph8.0 kmh 29.86 in1011.2 mb 0.00 in0.0 mm 0.00 in/hr0.0 mm/hr 0.01 in0.3 mm
11:30 AM 70.5°F21.4°C 67.4°F19.7°C 90% 5.5 mph N8.9 kmh N 7.1 mph11.4 kmh 29.86 in1011.2 mb 0.00 in0.0 mm 0.00 in/hr0.0 mm/hr 0.01 in0.3 mm
11:20 AM 70.5°F21.4°C 67.4°F19.7°C 90% 4.1 mph N6.6 kmh N 7.1 mph11.4 kmh 29.86 in1011.2 mb 0.00 in0.0 mm 0.00 in/hr0.0 mm/hr 0.01 in0.3 mm
11:15 AM 70.4°F21.3°C 67.4°F19.7°C 90% 3.9 mph N6.3 kmh N 7.1 mph11.4 kmh 29.86 in1011.2 mb 0.00 in0.0 mm 0.00 in/hr0.0 mm/hr 0.01 in0.3 mm
11:10 AM 70.5°F21.4°C 67.4°F19.7°C 90% 3.5 mph NNW5.6 kmh NNW 7.1 mph11.4 kmh 29.86 in1011.2 mb 0.00 in0.0 mm 0.00 in/hr0.0 mm/hr 0.01 in0.3 mm
11:00 AM 70.7°F21.5°C 67.9°F19.9°C 91% 5.4 mph 8.7 kmh 7.1 mph11.4 kmh 29.86 in1011.2 mb 0.00 in0.0 mm 0.00 in/hr0.0 mm/hr 0.01 in0.3 mm
10:50 AM 70.9°F21.6°C 68.1°F20.1°C 91% 4.5 mph NNW7.2 kmh NNW 5.0 mph8.0 kmh 29.86 in1011.2 mb 0.00 in0.0 mm 0.00 in/hr0.0 mm/hr 0.01 in0.3 mm
10:45 AM 71.0°F21.7°C 68.3°F20.2°C 91% 4.4 mph NW7.1 kmh NW 6.1 mph9.8 kmh 29.86 in1011.2 mb 0.00 in0.0 mm 0.00 in/hr0.0 mm/hr 0.01 in0.3 mm
10:40 AM 71.1°F21.7°C 68.4°F20.2°C 91% 1.7 mph N2.7 kmh N 6.1 mph9.8 kmh 29.86 in1011.2 mb 0.00 in0.0 mm 0.00 in/hr0.0 mm/hr 0.01 in0.3 mm
10:30 AM 71.2°F21.8°C 68.4°F20.2°C 91% Calm Calm -- 29.86 in1011.2 mb 0.00 in0.0 mm 0.00 in/hr0.0 mm/hr 0.01 in0.3 mm
10:20 AM 71.3°F21.8°C 68.5°F20.3°C 91% Calm Calm -- 29.86 in1011.2 mb 0.00 in0.0 mm 0.00 in/hr0.0 mm/hr 0.01 in0.3 mm
10:15 AM 71.3°F21.8°C 68.5°F20.3°C 91% Calm Calm -- 29.86 in1011.2 mb 0.00 in0.0 mm 0.00 in/hr0.0 mm/hr 0.01 in0.3 mm
10:10 AM 71.3°F21.8°C 68.5°F20.3°C 91% Calm Calm -- 29.85 in1010.8 mb 0.00 in0.0 mm 0.00 in/hr0.0 mm/hr 0.01 in0.3 mm
10:00 AM 71.5°F21.9°C 68.7°F20.4°C 91% Calm Calm -- 29.85 in1010.8 mb 0.00 in0.0 mm 0.00 in/hr0.0 mm/hr 0.01 in0.3 mm
09:50 AM 71.6°F22.0°C 68.5°F20.3°C 90% Calm Calm -- 29.85 in1010.8 mb 0.00 in0.0 mm 0.00 in/hr0.0 mm/hr 0.01 in0.3 mm
09:45 AM 71.6°F22.0°C 68.6°F20.3°C 90% Calm Calm -- 29.85 in1010.8 mb 0.00 in0.0 mm 0.00 in/hr0.0 mm/hr 0.01 in0.3 mm
09:40 AM 71.7°F22.1°C 68.6°F20.3°C 90% Calm Calm -- 29.85 in1010.8 mb 0.00 in0.0 mm 0.00 in/hr0.0 mm/hr 0.01 in0.3 mm
09:30 AM 71.8°F22.1°C 68.7°F20.4°C 90% Calm Calm -- 29.85 in1010.8 mb 0.00 in0.0 mm 0.00 in/hr0.0 mm/hr 0.01 in0.3 mm
09:20 AM 71.9°F22.2°C 68.8°F20.4°C 90% 2.2 mph NW3.5 kmh NW 4.0 mph6.4 kmh 29.85 in1010.8 mb 0.01 in0.3 mm 0.12 in/hr3.0 mm/hr 0.01 in0.3 mm
09:15 AM 71.9°F22.2°C 68.8°F20.4°C 90% Calm Calm -- 29.85 in1010.8 mb 0.01 in0.3 mm 0.12 in/hr3.0 mm/hr 0.01 in0.3 mm
09:10 AM 71.9°F22.2°C 68.8°F20.4°C 90% 5.9 mph NNW9.5 kmh NNW 7.1 mph11.4 kmh 29.85 in1010.8 mb 0.00 in0.0 mm 0.00 in/hr0.0 mm/hr 0.09 in2.3 mm
09:00 AM 71.8°F22.1°C 68.7°F20.4°C 90% 3.8 mph NNW6.1 kmh NNW 7.1 mph11.4 kmh 29.85 in1010.8 mb 0.00 in0.0 mm 0.00 in/hr0.0 mm/hr 0.09 in2.3 mm
08:50 AM 71.8°F22.1°C 68.7°F20.4°C 90% 7.0 mph NW11.3 kmh NW 8.1 mph13.0 kmh 29.85 in1010.8 mb 0.00 in0.0 mm 0.00 in/hr0.0 mm/hr 0.09 in2.3 mm
08:45 AM 71.8°F22.1°C 68.7°F20.4°C 90% 4.8 mph NNW7.7 kmh NNW 9.1 mph14.6 kmh 29.85 in1010.8 mb 0.00 in0.0 mm 0.00 in/hr0.0 mm/hr 0.09 in2.3 mm
08:40 AM 71.8°F22.1°C 69.0°F20.6°C 91% 5.6 mph NNW9.0 kmh NNW 8.1 mph13.0 kmh 29.85 in1010.8 mb 0.00 in0.0 mm 0.00 in/hr0.0 mm/hr 0.09 in2.3 mm
08:30 AM 71.8°F22.1°C 69.0°F20.6°C 91% 5.7 mph NW9.2 kmh NW 9.1 mph14.6 kmh 29.84 in1010.5 mb 0.00 in0.0 mm 0.00 in/hr0.0 mm/hr 0.09 in2.3 mm
08:20 AM 71.8°F22.1°C 69.3°F20.7°C 92% 2.2 mph NW3.5 kmh NW 6.1 mph9.8 kmh 29.84 in1010.5 mb 0.00 in0.0 mm 0.00 in/hr0.0 mm/hr 0.09 in2.3 mm
08:15 AM 71.8°F22.1°C 69.3°F20.7°C 92% 0.7 mph NNW1.1 kmh NNW 5.0 mph8.0 kmh 29.84 in1010.5 mb 0.00 in0.0 mm 0.00 in/hr0.0 mm/hr 0.09 in2.3 mm
08:10 AM 71.8°F22.1°C 69.3°F20.7°C 92% 3.4 mph NW5.5 kmh NW 8.1 mph13.0 kmh 29.83 in1010.2 mb 0.00 in0.0 mm 0.00 in/hr0.0 mm/hr 0.09 in2.3 mm
08:00 AM 71.7°F22.1°C 69.2°F20.7°C 92% 0.8 mph N1.3 kmh N -- 29.83 in1010.2 mb 0.00 in0.0 mm 0.00 in/hr0.0 mm/hr 0.09 in2.3 mm
07:50 AM 71.7°F22.1°C 69.5°F20.8°C 93% Calm Calm -- 29.84 in1010.5 mb 0.00 in0.0 mm 0.00 in/hr0.0 mm/hr 0.09 in2.3 mm
07:45 AM 71.6°F22.0°C 69.5°F20.8°C 93% 0.7 mph NNW1.1 kmh NNW -- 29.83 in1010.2 mb 0.00 in0.0 mm 0.00 in/hr0.0 mm/hr 0.09 in2.3 mm
07:40 AM 71.7°F22.1°C 69.5°F20.8°C 93% 1.9 mph NW3.1 kmh NW 4.0 mph6.4 kmh 29.83 in1010.2 mb 0.00 in0.0 mm 0.00 in/hr0.0 mm/hr 0.09 in2.3 mm
07:30 AM 71.8°F22.1°C 69.6°F20.9°C 93% 3.2 mph NW5.1 kmh NW 5.0 mph8.0 kmh 29.83 in1010.2 mb 0.00 in0.0 mm 0.00 in/hr0.0 mm/hr 0.09 in2.3 mm
07:20 AM 72.0°F22.2°C 69.8°F21.0°C 93% Calm Calm -- 29.83 in1010.2 mb 0.00 in0.0 mm 0.00 in/hr0.0 mm/hr 0.09 in2.3 mm
07:15 AM 72.1°F22.3°C 69.9°F21.1°C 93% 1.2 mph W1.9 kmh W 3.0 mph4.8 kmh 29.83 in1010.2 mb 0.00 in0.0 mm 0.00 in/hr0.0 mm/hr 0.09 in2.3 mm
07:10 AM 72.1°F22.3°C 69.9°F21.1°C 93% Calm Calm -- 29.83 in1010.2 mb 0.00 in0.0 mm 0.00 in/hr0.0 mm/hr 0.09 in2.3 mm
07:00 AM 72.2°F22.3°C 70.0°F21.1°C 93% Calm Calm -- 29.83 in1010.2 mb 0.00 in0.0 mm 0.00 in/hr0.0 mm/hr 0.09 in2.3 mm
06:50 AM 72.3°F22.4°C 70.1°F21.2°C 93% Calm Calm -- 29.83 in1010.2 mb 0.00 in0.0 mm 0.00 in/hr0.0 mm/hr 0.09 in2.3 mm
06:45 AM 72.3°F22.4°C 70.1°F21.2°C 93% Calm Calm -- 29.83 in1010.2 mb 0.00 in0.0 mm 0.00 in/hr0.0 mm/hr 0.09 in2.3 mm
06:40 AM 72.4°F22.4°C 70.2°F21.2°C 93% Calm Calm -- 29.83 in1010.2 mb 0.00 in0.0 mm 0.00 in/hr0.0 mm/hr 0.09 in2.3 mm
06:30 AM 72.3°F22.4°C 70.1°F21.2°C 93% Calm Calm -- 29.83 in1010.2 mb 0.00 in0.0 mm 0.00 in/hr0.0 mm/hr 0.09 in2.3 mm
06:20 AM 72.3°F22.4°C 70.1°F21.2°C 93% Calm Calm -- 29.83 in1010.2 mb 0.00 in0.0 mm 0.00 in/hr0.0 mm/hr 0.09 in2.3 mm
06:15 AM 72.3°F22.4°C 70.1°F21.2°C 93% 1.6 mph W2.6 kmh W 3.0 mph4.8 kmh 29.83 in1010.2 mb 0.00 in0.0 mm 0.00 in/hr0.0 mm/hr 0.09 in2.3 mm
06:10 AM 72.2°F22.3°C 70.1°F21.2°C 93% 1.4 mph W2.3 kmh W 2.0 mph3.2 kmh 29.83 in1010.2 mb 0.00 in0.0 mm 0.00 in/hr0.0 mm/hr 0.09 in2.3 mm
06:00 AM 72.2°F22.3°C 70.0°F21.1°C 93% 1.6 mph W2.6 kmh W 3.0 mph4.8 kmh 29.83 in1010.2 mb 0.00 in0.0 mm 0.00 in/hr0.0 mm/hr 0.09 in2.3 mm
05:50 AM 72.2°F22.3°C 70.0°F21.1°C 93% 2.5 mph WSW4.0 kmh WSW 4.0 mph6.4 kmh 29.83 in1010.2 mb 0.00 in0.0 mm 0.00 in/hr0.0 mm/hr 0.09 in2.3 mm
05:45 AM 72.2°F22.3°C 70.0°F21.1°C 93% 3.1 mph WNW5.0 kmh WNW 5.0 mph8.0 kmh 29.83 in1010.2 mb 0.00 in0.0 mm 0.00 in/hr0.0 mm/hr 0.09 in2.3 mm
05:40 AM 72.3°F22.4°C 70.1°F21.2°C 93% 3.3 mph WNW5.3 kmh WNW 4.0 mph6.4 kmh 29.83 in1010.2 mb 0.00 in0.0 mm 0.00 in/hr0.0 mm/hr 0.09 in2.3 mm
05:30 AM 72.4°F22.4°C 70.2°F21.2°C 93% 3.2 mph WNW5.1 kmh WNW 6.1 mph9.8 kmh 29.83 in1010.2 mb 0.00 in0.0 mm 0.00 in/hr0.0 mm/hr 0.09 in2.3 mm
05:20 AM 72.6°F22.6°C 70.4°F21.3°C 93% 1.7 mph W2.7 kmh W 5.0 mph8.0 kmh 29.84 in1010.5 mb 0.00 in0.0 mm 0.00 in/hr0.0 mm/hr 0.09 in2.3 mm
05:15 AM 72.7°F22.6°C 70.5°F21.4°C 93% 0.1 mph WNW0.2 kmh WNW 5.0 mph8.0 kmh 29.84 in1010.5 mb 0.00 in0.0 mm 0.00 in/hr0.0 mm/hr 0.09 in2.3 mm
05:10 AM 72.8°F22.7°C 71.0°F21.7°C 94% 1.3 mph W2.1 kmh W 3.0 mph4.8 kmh 29.84 in1010.5 mb 0.00 in0.0 mm 0.00 in/hr0.0 mm/hr 0.09 in2.3 mm
05:00 AM 73.0°F22.8°C 70.8°F21.6°C 93% 1.3 mph NNW2.1 kmh NNW 2.0 mph3.2 kmh 29.83 in1010.2 mb 0.00 in0.0 mm 0.00 in/hr0.0 mm/hr 0.09 in2.3 mm
04:50 AM 73.1°F22.8°C 71.0°F21.7°C 93% Calm Calm -- 29.84 in1010.5 mb 0.00 in0.0 mm 0.00 in/hr0.0 mm/hr 0.09 in2.3 mm
04:45 AM 73.1°F22.8°C 71.0°F21.7°C 93% Calm Calm -- 29.84 in1010.5 mb 0.00 in0.0 mm 0.00 in/hr0.0 mm/hr 0.09 in2.3 mm
04:40 AM 73.2°F22.9°C 71.0°F21.7°C 93% Calm Calm -- 29.84 in1010.5 mb 0.00 in0.0 mm 0.00 in/hr0.0 mm/hr 0.09 in2.3 mm
04:30 AM 73.4°F23.0°C 71.2°F21.8°C 93% Calm Calm -- 29.84 in1010.5 mb 0.00 in0.0 mm 0.00 in/hr0.0 mm/hr 0.09 in2.3 mm
04:20 AM 73.5°F23.1°C 71.3°F21.8°C 93% Calm Calm -- 29.84 in1010.5 mb 0.00 in0.0 mm 0.00 in/hr0.0 mm/hr 0.09 in2.3 mm
04:15 AM 73.6°F23.1°C 71.4°F21.9°C 93% Calm Calm -- 29.84 in1010.5 mb 0.00 in0.0 mm 0.00 in/hr0.0 mm/hr 0.09 in2.3 mm
04:10 AM 73.6°F23.1°C 71.4°F21.9°C 93% Calm Calm -- 29.84 in1010.5 mb 0.00 in0.0 mm 0.00 in/hr0.0 mm/hr 0.09 in2.3 mm
04:00 AM 73.6°F23.1°C 71.4°F21.9°C 93% Calm Calm -- 29.84 in1010.5 mb 0.00 in0.0 mm 0.00 in/hr0.0 mm/hr 0.09 in2.3 mm
03:50 AM 73.6°F23.1°C 71.5°F21.9°C 93% Calm Calm -- 29.84 in1010.5 mb 0.00 in0.0 mm 0.00 in/hr0.0 mm/hr 0.10 in2.5 mm
03:45 AM 73.7°F23.2°C 71.5°F21.9°C 93% Calm Calm -- 29.84 in1010.5 mb 0.00 in0.0 mm 0.00 in/hr0.0 mm/hr 0.10 in2.5 mm
03:40 AM 73.7°F23.2°C 71.5°F21.9°C 93% Calm Calm -- 29.84 in1010.5 mb 0.00 in0.0 mm 0.00 in/hr0.0 mm/hr 0.10 in2.5 mm
03:30 AM 73.7°F23.2°C 71.5°F21.9°C 93% Calm Calm -- 29.83 in1010.2 mb 0.00 in0.0 mm 0.00 in/hr0.0 mm/hr 0.10 in2.5 mm
03:20 AM 73.9°F23.3°C 71.7°F22.1°C 93% Calm Calm -- 29.84 in1010.5 mb 0.00 in0.0 mm 0.00 in/hr0.0 mm/hr 0.10 in2.5 mm
03:15 AM 74.0°F23.3°C 71.8°F22.1°C 93% Calm Calm -- 29.83 in1010.2 mb 0.00 in0.0 mm 0.00 in/hr0.0 mm/hr 0.10 in2.5 mm
03:10 AM 74.0°F23.3°C 71.8°F22.1°C 93% 2.4 mph N3.9 kmh N 3.0 mph4.8 kmh 29.83 in1010.2 mb 0.00 in0.0 mm 0.00 in/hr0.0 mm/hr 0.10 in2.5 mm
03:00 AM 73.9°F23.3°C 71.4°F21.9°C 92% Calm Calm -- 29.83 in1010.2 mb 0.00 in0.0 mm 0.00 in/hr0.0 mm/hr 0.10 in2.5 mm
02:50 AM 74.0°F23.3°C 71.5°F21.9°C 92% Calm Calm -- 29.83 in1010.2 mb 0.00 in0.0 mm 0.00 in/hr0.0 mm/hr 0.10 in2.5 mm
02:45 AM 74.0°F23.3°C 71.5°F21.9°C 92% 1.1 mph SSW1.8 kmh SSW 3.0 mph4.8 kmh 29.83 in1010.2 mb 0.00 in0.0 mm 0.00 in/hr0.0 mm/hr 0.10 in2.5 mm
02:40 AM 74.0°F23.3°C 71.5°F21.9°C 92% Calm Calm -- 29.83 in1010.2 mb 0.00 in0.0 mm 0.00 in/hr0.0 mm/hr 0.10 in2.5 mm
02:30 AM 74.0°F23.3°C 71.5°F21.9°C 92% Calm Calm -- 29.82 in1009.8 mb 0.00 in0.0 mm 0.00 in/hr0.0 mm/hr 0.10 in2.5 mm
02:20 AM 74.0°F23.3°C 71.5°F21.9°C 92% Calm Calm -- 29.83 in1010.2 mb 0.00 in0.0 mm 0.00 in/hr0.0 mm/hr 0.10 in2.5 mm
02:15 AM 73.9°F23.3°C 71.4°F21.9°C 92% Calm Calm -- 29.83 in1010.2 mb 0.00 in0.0 mm 0.00 in/hr0.0 mm/hr 0.10 in2.5 mm
02:10 AM 73.9°F23.3°C 71.1°F21.7°C 91% 0.3 mph N0.5 kmh N 3.0 mph4.8 kmh 29.83 in1010.2 mb 0.00 in0.0 mm 0.00 in/hr0.0 mm/hr 0.10 in2.5 mm
02:00 AM 73.8°F23.2°C 71.0°F21.7°C 91% Calm Calm -- 29.83 in1010.2 mb 0.00 in0.0 mm 0.00 in/hr0.0 mm/hr 0.10 in2.5 mm
01:50 AM 74.0°F23.3°C 71.2°F21.8°C 91% Calm Calm -- 29.82 in1009.8 mb 0.00 in0.0 mm 0.00 in/hr0.0 mm/hr 0.10 in2.5 mm
01:45 AM 74.0°F23.3°C 71.2°F21.8°C 91% 1.9 mph N3.1 kmh N 4.0 mph6.4 kmh 29.83 in1010.2 mb 0.00 in0.0 mm 0.00 in/hr0.0 mm/hr 0.10 in2.5 mm
01:40 AM 73.9°F23.3°C 71.1°F21.7°C 91% Calm Calm -- 29.83 in1010.2 mb 0.00 in0.0 mm 0.00 in/hr0.0 mm/hr 0.10 in2.5 mm
01:30 AM 73.8°F23.2°C 71.0°F21.7°C 91% 2.7 mph WNW4.3 kmh WNW 3.0 mph4.8 kmh 29.82 in1009.8 mb 0.00 in0.0 mm 0.00 in/hr0.0 mm/hr 0.10 in2.5 mm
01:20 AM 73.8°F23.2°C 70.7°F21.5°C 90% Calm Calm -- 29.83 in1010.2 mb 0.00 in0.0 mm 0.00 in/hr0.0 mm/hr 0.10 in2.5 mm
01:15 AM 73.8°F23.2°C 70.7°F21.5°C 90% Calm Calm -- 29.83 in1010.2 mb 0.00 in0.0 mm 0.00 in/hr0.0 mm/hr 0.10 in2.5 mm
01:10 AM 74.0°F23.3°C 70.9°F21.6°C 90% Calm Calm 1.0 mph1.6 kmh 29.83 in1010.2 mb 0.00 in0.0 mm 0.00 in/hr0.0 mm/hr 0.10 in2.5 mm
01:00 AM 74.4°F23.6°C 70.9°F21.6°C 89% 3.7 mph S6.0 kmh S 6.1 mph9.8 kmh 29.83 in1010.2 mb 0.00 in0.0 mm 0.00 in/hr0.0 mm/hr 0.10 in2.5 mm
12:50 AM 74.6°F23.7°C 70.5°F21.4°C 87% 0.3 mph WSW0.5 kmh WSW 3.0 mph4.8 kmh 29.82 in1009.8 mb 0.00 in0.0 mm 0.00 in/hr0.0 mm/hr 0.10 in2.5 mm
12:45 AM 74.6°F23.7°C 70.5°F21.4°C 87% Calm Calm -- 29.82 in1009.8 mb 0.00 in0.0 mm 0.00 in/hr0.0 mm/hr 0.10 in2.5 mm
12:40 AM 74.7°F23.7°C 70.6°F21.4°C 87% 4.2 mph WNW6.8 kmh WNW 5.0 mph8.0 kmh 29.82 in1009.8 mb 0.02 in0.5 mm 0.12 in/hr3.0 mm/hr 0.10 in2.5 mm
12:30 AM 74.9°F23.8°C 70.1°F21.2°C 85% 7.6 mph W12.2 kmh W 14.1 mph22.7 kmh 29.84 in1010.5 mb 0.02 in0.5 mm 0.12 in/hr3.0 mm/hr 0.09 in2.3 mm
12:20 AM 75.7°F24.3°C 69.8°F21.0°C 82% 4.7 mph WSW7.6 kmh WSW 7.1 mph11.4 kmh 29.84 in1010.5 mb 0.00 in0.0 mm 0.00 in/hr0.0 mm/hr 0.07 in1.8 mm
12:15 AM 76.3°F24.6°C 70.0°F21.1°C 81% 5.4 mph W8.7 kmh W 8.1 mph13.0 kmh 29.83 in1010.2 mb 0.00 in0.0 mm 0.00 in/hr0.0 mm/hr 0.07 in1.8 mm
12:10 AM 77.0°F25.0°C 70.3°F21.3°C 80% 4.1 mph WNW6.6 kmh WNW 7.1 mph11.4 kmh 29.82 in1009.8 mb 0.00 in0.0 mm 0.00 in/hr0.0 mm/hr 0.07 in1.8 mm
12:00 AM 78.6°F25.9°C 70.4°F21.3°C 76% 2.4 mph NW3.9 kmh NW 5.0 mph8.0 kmh 29.83 in1010.2 mb 0.05 in1.3 mm 0.00 in/hr0.0 mm/hr 0.07 in1.8 mm